Time;durP1;ratioP1;P1;durP2;ratioP2;P2;SDS_P1;SDS_P2;PMS_P1;PMS_P2;Temp;Humidity;BMP_temperature;BMP_pressure;BME280_temperature;BME280_humidity;BME280_pressure;Samples;Min_cycle;Max_cycle;Signal;HPM_P1;HPM_P2
2022/07/09 04:22:34;;;;;;;8.35;4.90;;;;;;;11.63;100.00;101327.25;5129801;27;20230;-67
2022/07/09 04:24:59;;;;;;;8.55;5.43;;;;;;;11.68;100.00;101332.16;5130176;27;20471;-67
2022/07/09 04:27:25;;;;;;;8.77;5.20;;;;;;;11.69;100.00;101329.31;5129837;27;20283;-68
2022/07/09 04:29:50;;;;;;;10.65;5.10;;;;;;;11.75;99.49;101335.03;5129463;27;20070;-68
2022/07/09 04:32:16;;;;;;;7.97;5.15;;;;;;;11.79;99.24;101334.56;5142306;27;20126;-68
2022/07/09 04:34:42;;;;;;;9.80;5.28;;;;;;;11.85;99.45;101335.81;5150688;27;20039;-68
2022/07/09 04:37:07;;;;;;;7.95;5.38;;;;;;;11.93;98.83;101336.72;5150185;27;20039;-68
2022/07/09 04:39:32;;;;;;;11.70;5.38;;;;;;;12.03;97.92;101335.78;5149931;27;20031;-67
2022/07/09 04:41:58;;;;;;;10.18;5.22;;;;;;;12.08;98.27;101328.97;5150142;27;20126;-67
2022/07/09 04:44:24;;;;;;;8.40;5.53;;;;;;;12.18;97.84;101334.19;5150197;27;20480;-67
2022/07/09 04:46:49;;;;;;;10.63;5.50;;;;;;;12.25;98.11;101326.38;5150219;27;20050;-67
2022/07/09 04:49:15;;;;;;;10.18;5.05;;;;;;;12.34;97.51;101328.97;5149799;27;20039;-67
2022/07/09 04:51:40;;;;;;;7.25;5.00;;;;;;;12.42;97.48;101330.84;5150108;27;20071;-67
2022/07/09 04:54:06;;;;;;;11.07;5.30;;;;;;;12.51;97.74;101327.19;5149924;27;20138;-68
2022/07/09 04:56:31;;;;;;;9.27;5.00;;;;;;;12.60;97.85;101326.25;5149859;27;20039;-68
2022/07/09 04:58:59;;;;;;;7.70;4.78;;;;;;;12.63;98.39;101320.56;5149594;27;20219;-68
2022/07/09 05:01:24;;;;;;;7.32;4.40;;;;;;;12.72;98.96;101329.50;5149861;27;20039;-68
2022/07/09 05:03:50;;;;;;;11.48;5.53;;;;;;;12.77;98.51;101330.66;5149897;27;20151;-68
2022/07/09 05:06:16;;;;;;;9.00;4.78;;;;;;;12.85;98.19;101329.88;5149760;27;20430;-68
2022/07/09 05:08:42;;;;;;;9.15;4.80;;;;;;;12.94;98.33;101330.72;5149435;27;20035;-68
2022/07/09 05:11:07;;;;;;;8.52;4.85;;;;;;;13.04;97.61;101334.94;5149595;27;20060;-68
2022/07/09 05:13:33;;;;;;;5.88;4.50;;;;;;;13.15;97.56;101336.47;5149650;27;20084;-68
2022/07/09 05:15:58;;;;;;;7.95;4.80;;;;;;;13.25;96.24;101331.00;5149443;27;20050;-68
2022/07/09 05:18:24;;;;;;;12.13;5.40;;;;;;;13.42;93.68;101337.22;5149287;27;20050;-68
2022/07/09 05:20:50;;;;;;;9.10;5.28;;;;;;;13.68;91.36;101331.72;5149367;27;20084;-68
2022/07/09 05:23:15;;;;;;;7.75;4.78;;;;;;;13.80;89.58;101331.22;5149591;27;20039;-68
2022/07/09 05:25:41;;;;;;;12.65;5.55;;;;;;;13.87;88.69;101333.22;5149276;27;20077;-68
2022/07/09 05:28:06;;;;;;;14.88;5.45;;;;;;;13.92;88.40;101334.38;5149121;27;20122;-68
2022/07/09 05:30:36;;;;;;;7.47;4.90;;;;;;;13.97;87.90;101320.50;5149041;27;20027;-68
2022/07/09 05:33:03;;;;;;;8.57;5.40;;;;;;;14.02;88.46;101318.16;5140703;27;20043;-68
2022/07/09 05:35:29;;;;;;;6.80;4.90;;;;;;;14.07;89.38;101323.81;5135414;27;20125;-68
2022/07/09 05:37:55;;;;;;;13.82;5.07;;;;;;;14.15;89.90;101331.00;5135395;27;20352;-68
2022/07/09 05:40:20;;;;;;;12.13;5.43;;;;;;;14.27;89.68;101330.47;5134956;27;20043;-68
2022/07/09 05:42:46;;;;;;;8.80;5.00;;;;;;;14.36;88.53;101328.63;5135359;27;20037;-68
2022/07/09 05:45:12;;;;;;;9.88;5.03;;;;;;;14.46;88.25;101323.06;5135208;27;20495;-68
2022/07/09 05:47:37;;;;;;;9.98;5.07;;;;;;;14.51;87.92;101318.03;5135206;27;20399;-68
2022/07/09 05:50:03;;;;;;;9.15;5.20;;;;;;;14.57;86.75;101320.03;5134924;27;20043;-68
2022/07/09 05:52:29;;;;;;;7.70;5.00;;;;;;;14.65;84.30;101314.63;5135206;27;20035;-68
2022/07/09 05:54:55;;;;;;;10.00;5.03;;;;;;;14.76;84.27;101319.63;5135098;27;20110;-68
2022/07/09 05:57:20;;;;;;;9.10;4.80;;;;;;;14.84;83.99;101322.25;5133793;27;20027;-68
2022/07/09 05:59:45;;;;;;;11.65;4.88;;;;;;;14.93;83.58;101318.53;5134746;27;20035;-68
2022/07/09 06:02:11;;;;;;;11.48;5.03;;;;;;;15.01;83.79;101317.66;5134743;27;20353;-68
2022/07/09 06:04:36;;;;;;;14.13;5.63;;;;;;;15.11;83.50;101323.63;5134809;27;20407;-68
2022/07/09 06:07:02;;;;;;;8.70;4.65;;;;;;;15.20;82.96;101322.56;5133514;27;20046;-68
2022/07/09 06:09:27;;;;;;;10.05;5.00;;;;;;;15.30;80.84;101319.66;5133260;27;20039;-68
2022/07/09 06:11:53;;;;;;;10.18;5.28;;;;;;;15.43;79.17;101322.56;5134736;27;20068;-68
2022/07/09 06:14:19;;;;;;;9.43;5.00;;;;;;;15.54;80.08;101331.25;5134760;27;20065;-68
2022/07/09 06:16:46;;;;;;;9.60;4.90;;;;;;;15.62;81.47;101333.88;5134497;27;20149;-68
2022/07/09 06:19:13;;;;;;;13.60;5.40;;;;;;;15.71;81.30;101332.78;5134233;27;20488;-68
2022/07/09 06:21:38;;;;;;;10.32;5.38;;;;;;;15.80;80.84;101326.34;5134296;27;20126;-68
2022/07/09 06:24:05;;;;;;;9.57;5.32;;;;;;;15.89;81.21;101333.31;5134440;27;20420;-69
2022/07/09 06:26:31;;;;;;;9.18;5.13;;;;;;;15.97;80.23;101317.13;5134397;27;20506;-65
2022/07/09 06:28:57;;;;;;;9.02;5.30;;;;;;;16.07;80.85;101318.72;5134033;27;20051;-65
2022/07/09 06:31:23;;;;;;;11.45;5.43;;;;;;;16.20;79.58;101317.06;5134422;27;20134;-65
2022/07/09 06:33:48;;;;;;;10.23;5.55;;;;;;;16.31;79.36;101317.63;5134311;27;20114;-64
2022/07/09 06:36:14;;;;;;;12.02;5.50;;;;;;;16.39;78.10;101310.31;5134166;27;20122;-65
2022/07/09 06:41:23;;;;;;;11.38;5.40;;;;;;;16.63;76.92;101306.50;5134031;27;20071;-65
2022/07/09 06:43:48;;;;;;;11.75;5.43;;;;;;;16.68;77.39;101305.91;5133301;27;20080;-63
2022/07/09 06:46:14;;;;;;;9.65;5.65;;;;;;;16.75;77.96;101299.63;5133707;27;20039;-62
2022/07/09 06:48:39;;;;;;;10.88;5.40;;;;;;;16.89;78.93;101311.41;5132463;27;20062;-62
2022/07/09 06:51:04;;;;;;;12.43;5.28;;;;;;;17.07;75.49;101309.09;5132613;27;20081;-63
2022/07/09 06:53:30;;;;;;;12.13;5.13;;;;;;;17.19;74.53;101305.94;5133757;27;20461;-62
2022/07/09 06:55:55;;;;;;;11.55;4.95;;;;;;;17.25;75.94;101306.00;5133543;27;20053;-63
2022/07/09 06:58:21;;;;;;;10.15;5.38;;;;;;;17.29;76.67;101312.69;5133479;27;20034;-64
2022/07/09 07:00:46;;;;;;;9.70;5.05;;;;;;;17.40;75.79;101302.41;5133531;27;20055;-64
2022/07/09 07:03:11;;;;;;;11.07;4.90;;;;;;;17.46;76.55;101307.84;5133663;27;20589;-64
2022/07/09 07:05:37;;;;;;;10.75;5.18;;;;;;;17.60;75.27;101306.97;5132273;27;20466;-62
2022/07/09 07:08:03;;;;;;;8.15;4.93;;;;;;;17.69;75.22;101309.53;5133334;27;20046;-63
2022/07/09 07:10:28;;;;;;;9.18;4.57;;;;;;;17.78;76.02;101313.75;5133168;27;20095;-64
2022/07/09 07:12:55;;;;;;;7.20;5.25;;;;;;;17.84;75.64;101313.00;5133264;27;20038;-64
2022/07/09 07:15:20;;;;;;;12.73;4.78;;;;;;;17.97;74.61;101310.41;5133402;27;20038;-64
2022/07/09 07:17:45;;;;;;;9.05;4.82;;;;;;;18.06;75.41;101311.06;5112953;27;20036;-64
2022/07/09 07:20:11;;;;;;;8.00;4.18;;;;;;;18.18;73.32;101304.09;5119624;27;20429;-64
2022/07/09 07:22:37;;;;;;;8.30;4.40;;;;;;;18.30;73.42;101310.63;5112337;28;20039;-64
2022/07/09 07:25:02;;;;;;;8.38;4.40;;;;;;;18.41;72.38;101309.25;5112922;28;20032;-63
2022/07/09 07:27:28;;;;;;;9.50;5.30;;;;;;;18.51;73.12;101309.69;5111927;28;20054;-64
2022/07/09 07:29:53;;;;;;;7.28;4.18;;;;;;;18.62;70.73;101313.69;5110803;28;20055;-63
2022/07/09 07:32:18;;;;;;;6.68;4.35;;;;;;;18.70;71.08;101306.28;5112287;28;20043;-63
2022/07/09 07:34:44;;;;;;;9.50;4.13;;;;;;;18.77;71.06;101309.00;5112390;28;20120;-64
2022/07/09 07:37:09;;;;;;;5.95;4.38;;;;;;;18.87;69.80;101301.38;5111995;28;20517;-63
2022/07/09 07:39:35;;;;;;;7.18;4.22;;;;;;;18.95;71.14;101306.59;5111670;28;20046;-64
2022/07/09 07:42:00;;;;;;;7.97;4.00;;;;;;;19.12;67.83;101298.97;5111982;28;20032;-64
2022/07/09 07:44:26;;;;;;;8.20;4.20;;;;;;;19.21;68.04;101303.13;5112017;28;20499;-63
2022/07/09 07:46:51;;;;;;;12.10;4.75;;;;;;;19.36;68.41;101305.66;5108034;28;20043;-64
2022/07/09 07:49:17;;;;;;;8.60;4.10;;;;;;;19.48;65.70;101303.19;5091105;28;20165;-64
2022/07/09 07:51:43;;;;;;;7.25;3.80;;;;;;;19.55;64.34;101300.47;5091377;28;20035;-64
2022/07/09 07:54:08;;;;;;;5.18;4.05;;;;;;;19.69;62.51;101291.38;5091670;28;20032;-63
2022/07/09 07:56:36;;;;;;;5.57;3.75;;;;;;;19.78;64.29;101287.44;5091219;28;20545;-64
2022/07/09 07:59:02;;;;;;;8.05;4.43;;;;;;;19.88;65.89;101290.53;5090856;28;20143;-62
2022/07/09 08:01:27;;;;;;;6.50;3.65;;;;;;;20.06;62.45;101281.78;5089922;28;20050;-64
2022/07/09 08:03:53;;;;;;;6.88;3.75;;;;;;;20.20;62.83;101280.72;5091453;28;20028;-64
2022/07/09 08:06:18;;;;;;;5.68;3.28;;;;;;;20.24;64.90;101279.25;5091347;28;20077;-63
2022/07/09 08:08:44;;;;;;;6.07;3.65;;;;;;;20.45;62.54;101286.28;5091051;28;20412;-63
2022/07/09 08:11:09;;;;;;;7.72;3.50;;;;;;;20.65;59.93;101283.50;5091285;28;20368;-64
2022/07/09 08:13:34;;;;;;;6.47;3.30;;;;;;;20.92;59.52;101288.81;5091265;28;20040;-63
2022/07/09 08:16:01;;;;;;;9.82;3.53;;;;;;;21.05;58.30;101284.16;5091269;28;20042;-64
2022/07/09 08:18:27;;;;;;;7.00;3.65;;;;;;;21.09;57.29;101285.38;5090533;28;20382;-63
2022/07/09 08:20:52;;;;;;;7.30;3.28;;;;;;;21.33;57.92;101286.53;5091131;28;20069;-63
2022/07/09 08:23:18;;;;;;;5.75;3.40;;;;;;;21.48;58.04;101282.66;5091007;28;20040;-64
2022/07/09 08:25:44;;;;;;;5.03;2.90;;;;;;;21.72;57.61;101281.84;5091273;28;20039;-63
2022/07/09 08:28:09;;;;;;;4.93;3.13;;;;;;;22.04;56.63;101266.31;5090845;28;20118;-63
2022/07/09 08:30:35;;;;;;;9.90;3.55;;;;;;;22.10;57.21;101265.41;5090438;28;20152;-64
2022/07/09 08:33:00;;;;;;;5.82;4.25;;;;;;;22.01;54.12;101261.31;5090673;28;20373;-63
2022/07/09 08:35:26;;;;;;;6.28;3.00;;;;;;;22.15;55.88;101262.03;5089994;28;20044;-63
2022/07/09 08:37:52;;;;;;;5.45;2.92;;;;;;;22.29;56.42;101262.72;5091009;28;20035;-64
2022/07/09 08:40:18;;;;;;;5.15;2.75;;;;;;;22.41;55.15;101261.75;5089245;28;20042;-64
2022/07/09 08:42:44;;;;;;;3.58;2.47;;;;;;;22.60;51.24;101254.41;5091252;28;20397;-62
2022/07/09 08:45:13;;;;;;;6.60;3.30;;;;;;;22.69;53.13;101254.91;5091073;28;20028;-66
2022/07/09 08:47:38;;;;;;;5.25;1.95;;;;;;;22.74;50.27;101261.31;5091024;28;20054;-66
2022/07/09 08:50:04;;;;;;;3.25;2.03;;;;;;;22.90;51.73;101253.66;5090746;28;20052;-64
2022/07/09 08:52:31;;;;;;;3.45;2.20;;;;;;;22.96;49.52;101245.41;5090929;28;20089;-64
2022/07/09 08:54:56;;;;;;;6.93;2.40;;;;;;;23.16;49.91;101257.88;5091006;28;20024;-64
2022/07/09 08:57:22;;;;;;;2.92;1.90;;;;;;;23.26;44.46;101258.13;5089659;28;20095;-63
2022/07/09 08:59:47;;;;;;;6.47;2.25;;;;;;;23.45;45.67;101248.81;5090738;28;20085;-64
2022/07/09 09:02:13;;;;;;;3.30;2.08;;;;;;;23.68;47.86;101255.38;5090810;28;20040;-63
2022/07/09 09:04:40;;;;;;;6.35;2.90;;;;;;;23.55;46.26;101245.53;5091031;28;20046;-62
2022/07/09 09:07:31;;;;;;;4.40;3.00;;;;;;;23.79;47.78;101239.03;5088993;28;20040;-67
2022/07/09 09:09:57;;;;;;;3.95;2.20;;;;;;;23.86;48.20;101240.81;5091734;28;20131;-65
2022/07/09 09:12:28;;;;;;;4.20;2.17;;;;;;;24.03;47.50;101229.00;5076581;28;20463;-64
2022/07/09 09:14:53;;;;;;;4.78;2.22;;;;;;;24.19;46.03;101223.88;5060510;28;20032;-64
2022/07/09 09:17:19;;;;;;;8.70;2.60;;;;;;;24.41;45.43;101230.38;5076179;28;20511;-65
2022/07/09 09:19:44;;;;;;;5.82;2.30;;;;;;;24.60;46.37;101222.84;5093016;28;20039;-67
2022/07/09 09:22:10;;;;;;;2.78;2.08;;;;;;;24.73;48.17;101219.84;5092565;28;20047;-67
2022/07/09 09:24:35;;;;;;;6.30;2.20;;;;;;;24.72;46.80;101220.91;5092885;28;20328;-66
2022/07/09 09:27:02;;;;;;;3.28;2.83;;;;;;;24.78;47.38;101221.84;5092941;28;20548;-65
2022/07/09 09:29:28;;;;;;;6.45;2.70;;;;;;;24.77;45.88;101225.59;5092758;28;20142;-65
2022/07/09 09:31:54;;;;;;;3.17;2.30;;;;;;;25.17;46.01;101220.13;5095001;28;20032;-65
2022/07/09 09:34:21;;;;;;;4.15;2.30;;;;;;;24.84;43.22;101212.66;5094425;28;20059;-65
2022/07/09 09:36:50;;;;;;;6.10;2.40;;;;;;;24.90;44.81;101217.13;5100037;28;20039;-65
2022/07/09 09:39:20;;;;;;;2.80;2.25;;;;;;;25.36;47.65;101207.88;5114402;28;20043;-65
2022/07/09 09:41:46;;;;;;;3.13;2.00;;;;;;;25.63;44.10;101210.78;5114584;28;20027;-65
2022/07/09 09:44:17;;;;;;;2.13;1.85;;;;;;;26.05;45.12;101201.28;5113288;28;20035;-65
2022/07/09 09:46:44;;;;;;;2.83;1.75;;;;;;;26.13;43.74;101200.81;5114227;28;20122;-65
2022/07/09 09:49:11;;;;;;;2.40;1.60;;;;;;;26.39;42.43;101196.50;5114215;27;20024;-66
2022/07/09 09:51:47;;;;;;;4.72;1.60;;;;;;;26.38;40.24;101195.69;5113117;28;20040;-69
2022/07/09 09:54:13;;;;;;;3.88;1.70;;;;;;;26.20;39.68;101194.09;5114901;28;20377;-67
2022/07/09 09:56:39;;;;;;;4.60;1.77;;;;;;;26.40;42.29;101190.00;5114449;28;20028;-68
2022/07/09 09:59:05;;;;;;;3.63;1.90;;;;;;;26.44;40.89;101193.88;5114054;27;20396;-65
2022/07/09 10:01:30;;;;;;;4.78;2.42;;;;;;;26.79;41.10;101193.41;5114131;28;20450;-65
2022/07/09 10:03:57;;;;;;;4.28;2.08;;;;;;;27.10;40.71;101202.75;5114187;28;20527;-65
2022/07/09 10:06:24;;;;;;;4.97;2.10;;;;;;;27.45;39.37;101193.19;5114174;27;20036;-65
2022/07/09 10:08:50;;;;;;;2.90;1.75;;;;;;;27.61;39.19;101192.22;5113973;28;20593;-64
2022/07/09 10:11:16;;;;;;;3.67;1.70;;;;;;;27.77;39.86;101188.50;5114004;27;20035;-66
2022/07/09 10:13:55;;;;;;;2.15;1.60;;;;;;;28.14;38.89;101190.34;5112796;28;20063;-65
2022/07/09 10:16:38;;;;;;;3.10;1.80;;;;;;;27.91;38.30;101190.75;5114006;28;20039;-61
2022/07/09 10:19:04;;;;;;;4.43;1.98;;;;;;;27.59;38.29;101192.47;5113707;28;20032;-61
2022/07/09 10:21:32;;;;;;;2.78;1.90;;;;;;;27.41;37.93;101187.44;5114253;28;20118;-61
2022/07/09 10:23:57;;;;;;;3.75;1.63;;;;;;;27.28;37.85;101174.19;5112510;28;20484;-62
2022/07/09 10:26:34;;;;;;;4.43;1.90;;;;;;;27.67;38.71;101185.69;5112619;28;20047;-61
2022/07/09 10:29:00;;;;;;;2.35;1.58;;;;;;;27.97;37.92;101184.22;5113612;28;20511;-61
2022/07/09 10:31:25;;;;;;;3.47;1.85;;;;;;;28.49;37.85;101180.59;5113680;28;20039;-61
2022/07/09 10:34:06;;;;;;;2.83;1.58;;;;;;;28.88;36.12;101170.81;5113914;28;20039;-62
2022/07/09 10:36:31;;;;;;;3.20;1.40;;;;;;;29.07;34.42;101179.34;5113638;28;20067;-61
2022/07/09 10:38:57;;;;;;;6.93;1.85;;;;;;;29.30;35.14;101180.72;5113117;28;20071;-61
2022/07/09 10:41:23;;;;;;;2.97;1.30;;;;;;;29.53;36.00;101178.53;5112065;28;20032;-61
2022/07/09 10:43:50;;;;;;;2.33;1.30;;;;;;;28.99;32.86;101179.91;5113513;28;20038;-61
2022/07/09 10:46:16;;;;;;;;;;;;;;;29.10;35.10;101172.50;5113857;28;20032;-61
2022/07/09 10:48:43;;;;;;;2.10;1.40;;;;;;;29.38;33.57;101173.84;5113038;28;19915;-61
2022/07/09 10:51:19;;;;;;;2.78;1.40;;;;;;;29.67;34.97;101179.63;5113088;28;20099;-62
2022/07/09 10:53:45;;;;;;;3.45;1.40;;;;;;;30.12;32.37;101166.84;5113190;28;20046;-61
2022/07/09 10:56:10;;;;;;;1.88;1.20;;;;;;;30.41;33.12;101169.72;5113111;28;20031;-61
2022/07/09 10:58:36;;;;;;;2.05;1.33;;;;;;;30.28;33.60;101168.41;5112966;28;20133;-61
2022/07/09 11:01:03;;;;;;;2.15;1.40;;;;;;;29.96;34.55;101169.63;5111799;28;20370;-62
2022/07/09 11:03:30;;;;;;;3.60;1.60;;;;;;;30.32;33.53;101161.25;5113054;28;20473;-62
2022/07/09 11:05:56;;;;;;;;;;;;;;;29.78;36.67;101167.47;5113963;28;20477;-62
2022/07/09 11:08:21;;;;;;;1.70;1.20;;;;;;;29.30;37.31;101167.00;5112690;28;19918;-62
2022/07/09 11:10:47;;;;;;;2.35;1.20;;;;;;;29.42;36.27;101162.06;5112860;27;20051;-62
2022/07/09 11:13:12;;;;;;;2.13;1.10;;;;;;;29.78;33.00;101159.25;5112960;28;20058;-62
2022/07/09 11:15:38;;;;;;;2.55;1.30;;;;;;;30.02;33.45;101151.19;5112691;28;20115;-62
2022/07/09 11:18:09;;;;;;;1.50;1.20;;;;;;;29.45;34.39;101153.25;5112602;28;20489;-62
2022/07/09 11:20:46;;;;;;;1.27;1.10;;;;;;;29.17;33.59;101151.13;5112436;28;20126;-62
2022/07/09 11:23:13;;;;;;;1.83;1.10;;;;;;;29.36;33.73;101149.44;5112613;28;20038;-62
2022/07/09 11:25:38;;;;;;;2.97;1.10;;;;;;;28.74;35.37;101146.94;5112762;28;20362;-62
2022/07/09 11:28:04;;;;;;;3.28;1.30;;;;;;;28.05;34.94;101137.19;5112606;28;20130;-62
2022/07/09 11:30:30;;;;;;;2.38;1.23;;;;;;;28.06;35.80;101136.09;5111961;28;20047;-62
2022/07/09 11:32:56;;;;;;;4.50;1.52;;;;;;;27.93;36.94;101131.94;5112401;28;20031;-62
2022/07/09 11:35:25;;;;;;;1.98;1.48;;;;;;;27.81;36.57;101132.16;5112360;28;20043;-62
2022/07/09 11:37:52;;;;;;;1.88;1.35;;;;;;;27.80;37.65;101129.69;5112421;28;20035;-62
2022/07/09 11:40:19;;;;;;;1.33;1.20;;;;;;;27.54;37.44;101123.22;5112222;28;20036;-62
2022/07/09 11:42:45;;;;;;;2.58;1.42;;;;;;;27.36;39.04;101126.38;5112902;28;20027;-62
2022/07/09 11:45:11;;;;;;;2.23;1.20;;;;;;;27.34;41.79;101128.56;5112467;28;20113;-62
2022/07/09 11:47:38;;;;;;;4.23;1.57;;;;;;;27.02;39.41;101123.94;5112187;28;20539;-62
2022/07/09 11:50:12;;;;;;;4.45;1.58;;;;;;;27.05;41.31;101120.69;5112265;28;20480;-62
2022/07/09 11:52:45;;;;;;;2.17;1.40;;;;;;;27.06;41.93;101125.09;5112090;28;20042;-62
2022/07/09 11:55:14;;;;;;;2.03;1.67;;;;;;;27.23;42.97;101117.56;5112152;28;20032;-62
2022/07/09 11:57:51;;;;;;;3.17;1.60;;;;;;;27.44;40.55;101112.22;5112152;28;20059;-62
2022/07/09 12:00:20;;;;;;;;;;;;;;;27.75;42.04;101110.50;5112328;28;20044;-62
2022/07/09 12:02:46;;;;;;;3.30;1.80;;;;;;;28.02;39.32;101102.94;5112210;28;19927;-63
2022/07/09 12:05:11;;;;;;;1.60;1.50;;;;;;;28.53;38.81;101105.00;5112278;28;20043;-63
2022/07/09 12:07:37;;;;;;;2.65;1.60;;;;;;;28.84;37.50;101101.19;5112280;28;20113;-63
2022/07/09 12:10:05;;;;;;;4.03;1.70;;;;;;;29.27;35.95;101100.88;5111759;28;20061;-63
2022/07/09 12:12:32;;;;;;;3.97;1.80;;;;;;;30.09;35.12;101090.47;5111647;28;20040;-63
2022/07/09 12:14:58;;;;;;;1.63;1.45;;;;;;;30.36;34.89;101079.88;5111782;28;20099;-63
2022/07/09 12:17:25;;;;;;;1.50;1.25;;;;;;;30.52;35.49;101081.44;5111827;28;20031;-63
2022/07/09 12:19:51;;;;;;;;;;;;;;;30.40;35.36;101074.66;5112129;28;20139;-63
2022/07/09 12:22:17;;;;;;;2.63;1.38;;;;;;;31.06;33.34;101072.19;5111725;28;19911;-63
2022/07/09 12:24:42;;;;;;;1.52;1.13;;;;;;;31.79;32.51;101067.53;5111944;28;20036;-63
2022/07/09 12:27:08;;;;;;;1.42;1.20;;;;;;;31.64;32.50;101068.53;5111714;28;20130;-63
2022/07/09 12:29:34;;;;;;;2.40;1.37;;;;;;;32.31;30.01;101063.75;5110212;28;20043;-63
2022/07/09 12:31:59;;;;;;;1.63;1.33;;;;;;;32.35;31.21;101070.34;5111625;28;20048;-63
2022/07/09 12:34:25;;;;;;;2.47;1.40;;;;;;;32.69;31.94;101063.75;5111858;28;20101;-63
2022/07/09 12:36:50;;;;;;;2.07;1.47;;;;;;;32.22;31.92;101057.31;5111715;28;20089;-63
2022/07/09 12:39:16;;;;;;;3.73;1.60;;;;;;;31.53;32.84;101062.31;5112022;28;20512;-63
2022/07/09 12:41:41;;;;;;;1.93;1.20;;;;;;;31.19;33.87;101069.84;5111747;28;20119;-63
2022/07/09 12:44:07;;;;;;;1.40;1.30;;;;;;;31.72;31.61;101070.63;5114040;28;20043;-63
2022/07/09 12:46:32;;;;;;;3.20;1.50;;;;;;;31.73;34.23;101065.94;5115658;28;20115;-63
2022/07/09 12:48:58;;;;;;;2.17;1.30;;;;;;;31.94;27.89;101048.06;5115588;28;20039;-63
2022/07/09 12:51:23;;;;;;;1.87;1.20;;;;;;;32.18;31.00;101042.47;5116110;28;20036;-63
2022/07/09 12:53:49;;;;;;;1.97;0.90;;;;;;;32.42;29.34;101044.34;5115756;28;20122;-63
2022/07/09 12:56:14;;;;;;;3.00;1.10;;;;;;;31.61;31.97;101042.41;5115445;28;20071;-63
2022/07/09 12:58:40;;;;;;;2.87;1.10;;;;;;;31.60;30.29;101037.19;5115376;28;20039;-63
2022/07/09 13:01:05;;;;;;;2.50;1.10;;;;;;;31.05;28.51;101026.53;5115855;28;20165;-63
2022/07/09 13:03:31;;;;;;;1.67;0.90;;;;;;;31.34;31.50;101025.69;5115481;28;20040;-63
2022/07/09 13:05:56;;;;;;;3.03;1.20;;;;;;;31.25;30.26;101025.50;5115531;28;20039;-63
2022/07/09 13:08:22;;;;;;;2.30;1.20;;;;;;;30.75;31.67;101024.06;5115219;28;20116;-63
2022/07/09 13:10:47;;;;;;;3.13;1.23;;;;;;;30.26;32.79;101031.34;5115205;28;20217;-63
2022/07/09 13:13:13;;;;;;;1.70;1.23;;;;;;;30.30;33.68;101025.25;5115093;28;20039;-64
2022/07/09 13:15:38;;;;;;;1.77;1.27;;;;;;;29.77;34.26;101012.09;5113380;28;20032;-63
2022/07/09 13:18:04;;;;;;;1.60;1.13;;;;;;;29.41;35.24;101006.75;5115021;28;20047;-64
2022/07/09 13:20:29;;;;;;;1.42;1.20;;;;;;;28.83;37.13;101009.09;5114826;28;20035;-64
2022/07/09 13:22:54;;;;;;;1.55;1.20;;;;;;;28.86;36.02;101011.25;5115165;28;20511;-64
2022/07/09 13:25:20;;;;;;;3.25;1.35;;;;;;;28.96;36.67;100998.69;5114783;28;20519;-64
2022/07/09 13:27:45;;;;;;;1.50;1.15;;;;;;;28.79;34.81;101002.50;5114785;27;20051;-64
2022/07/09 13:30:11;;;;;;;3.88;1.10;;;;;;;28.52;35.53;101004.72;5114655;28;20032;-64
2022/07/09 13:32:36;;;;;;;2.50;1.20;;;;;;;28.53;36.20;101009.09;5114791;28;20393;-64
2022/07/09 13:35:02;;;;;;;2.03;1.27;;;;;;;28.44;37.70;101006.09;5114896;28;20048;-63
2022/07/09 13:37:30;;;;;;;2.22;1.30;;;;;;;28.45;36.62;101010.47;5114651;28;20043;-64
2022/07/09 13:39:56;;;;;;;1.65;1.08;;;;;;;28.47;37.06;101011.00;5114283;28;20090;-63
2022/07/09 13:42:22;;;;;;;2.45;1.20;;;;;;;28.48;37.01;101004.44;5114954;28;20055;-64
2022/07/09 13:44:47;;;;;;;3.55;2.20;;;;;;;28.58;38.98;101006.38;5114599;28;20048;-63
2022/07/09 13:47:14;;;;;;;3.90;1.50;;;;;;;28.57;37.83;101004.72;5114458;28;20122;-64
2022/07/09 13:49:39;;;;;;;1.80;1.40;;;;;;;28.45;37.88;100995.97;5114292;28;20030;-64
2022/07/09 13:52:05;;;;;;;1.50;1.30;;;;;;;28.59;38.37;101002.53;5114901;28;20036;-63
2022/07/09 13:54:31;;;;;;;2.35;1.60;;;;;;;28.48;37.56;100988.00;5113913;28;20480;-64
2022/07/09 13:56:56;;;;;;;2.92;1.30;;;;;;;28.20;37.48;100985.78;5114233;28;20530;-64
2022/07/09 13:59:22;;;;;;;2.35;1.23;;;;;;;28.33;38.87;100980.59;5114095;28;20059;-64
2022/07/09 14:01:47;;;;;;;2.72;1.40;;;;;;;28.20;37.81;100978.38;5114292;28;20488;-64
2022/07/09 14:04:13;;;;;;;1.63;1.30;;;;;;;28.25;39.10;100980.31;5114192;28;20046;-64
2022/07/09 14:06:39;;;;;;;2.20;1.48;;;;;;;28.02;38.65;100976.16;5114131;28;20047;-63
2022/07/09 14:09:04;;;;;;;1.70;1.50;;;;;;;27.85;39.67;100977.25;5113688;28;20030;-63
2022/07/09 14:11:30;;;;;;;2.60;1.40;;;;;;;27.64;40.18;100978.22;5114170;28;20040;-63
2022/07/09 14:13:57;;;;;;;1.63;1.30;;;;;;;27.37;39.52;100972.13;5114238;28;20048;-63
2022/07/09 14:16:22;;;;;;;2.20;1.60;;;;;;;27.25;40.04;100970.44;5114137;28;20043;-63
2022/07/09 14:18:48;;;;;;;3.72;1.38;;;;;;;27.31;39.60;100966.63;5113925;28;20050;-63
2022/07/09 14:21:13;;;;;;;2.40;1.52;;;;;;;27.49;38.87;100964.50;5113943;28;20028;-63
2022/07/09 14:23:39;;;;;;;2.15;1.58;;;;;;;27.78;40.51;100968.47;5112583;28;20484;-63
2022/07/09 14:26:04;;;;;;;4.05;1.90;;;;;;;27.82;40.03;100958.59;5112631;28;20074;-64
2022/07/09 14:28:30;;;;;;;2.20;1.50;;;;;;;27.86;39.48;100956.16;5113822;28;20032;-64
2022/07/09 14:30:55;;;;;;;2.05;1.73;;;;;;;27.97;40.03;100956.97;5113832;28;20080;-62
2022/07/09 14:33:21;;;;;;;1.90;1.60;;;;;;;27.99;39.61;100961.13;5113868;28;20107;-62
2022/07/09 14:35:46;;;;;;;3.00;1.63;;;;;;;28.09;40.48;100958.38;5113751;28;20104;-62
2022/07/09 14:38:12;;;;;;;1.95;1.55;;;;;;;28.06;39.25;100955.38;5113517;28;20489;-62
2022/07/09 14:40:37;;;;;;;1.40;1.30;;;;;;;28.05;38.51;100954.56;5113448;28;20445;-62
2022/07/09 14:43:03;;;;;;;2.13;1.48;;;;;;;28.04;38.29;100949.34;5112248;28;20040;-62
2022/07/09 14:45:28;;;;;;;3.78;2.42;;;;;;;27.90;39.73;100950.97;5112366;28;20040;-62
2022/07/09 14:47:54;;;;;;;3.47;1.80;;;;;;;27.82;39.14;100939.44;5113359;28;20038;-62
2022/07/09 14:50:20;;;;;;;1.98;1.60;;;;;;;27.96;39.36;100938.91;5113265;28;20374;-62
2022/07/09 14:52:46;;;;;;;3.42;1.70;;;;;;;27.89;38.19;100938.38;5113219;28;20032;-62
2022/07/09 14:55:12;;;;;;;3.70;2.10;;;;;;;27.86;40.48;100942.47;5113261;28;20028;-62
2022/07/09 14:57:38;;;;;;;4.07;1.40;;;;;;;27.81;38.33;100937.81;5095505;28;20054;-62
2022/07/09 15:00:04;;;;;;;2.92;1.70;;;;;;;27.70;38.74;100938.88;5112945;28;20055;-62
2022/07/09 15:02:29;;;;;;;2.20;1.30;;;;;;;27.45;41.37;100936.03;5113129;28;20480;-62
2022/07/09 15:04:56;;;;;;;2.55;1.48;;;;;;;27.24;39.46;100930.50;5111191;28;20047;-62
2022/07/09 15:07:22;;;;;;;4.45;1.92;;;;;;;27.23;39.25;100931.59;5112871;28;20063;-62
2022/07/09 15:09:48;;;;;;;3.28;1.83;;;;;;;27.20;40.42;100932.16;5112997;28;20036;-62
2022/07/09 15:12:13;;;;;;;3.78;1.63;;;;;;;27.19;39.98;100929.66;5112890;28;20110;-62
2022/07/09 15:14:39;;;;;;;2.00;1.30;;;;;;;27.30;40.38;100934.09;5113125;28;20104;-62
2022/07/09 15:17:04;;;;;;;2.33;1.73;;;;;;;27.18;39.57;100926.09;5111779;28;20036;-62
2022/07/09 15:19:30;;;;;;;2.83;1.70;;;;;;;27.04;39.33;100916.72;5112595;28;20134;-62
2022/07/09 15:21:56;;;;;;;2.83;1.77;;;;;;;27.01;40.11;100915.34;5112697;28;20036;-62
2022/07/09 15:24:21;;;;;;;4.47;1.90;;;;;;;27.03;39.74;100917.81;5112747;28;20040;-62
2022/07/09 15:26:46;;;;;;;4.22;1.50;;;;;;;27.08;40.44;100903.38;5112689;28;20043;-63
2022/07/09 15:29:12;;;;;;;2.50;1.58;;;;;;;27.13;39.80;100909.69;5112439;28;20039;-63
2022/07/09 15:31:37;;;;;;;2.65;1.75;;;;;;;27.20;39.40;100904.81;5112668;28;20041;-63
2022/07/09 15:34:04;;;;;;;3.30;1.52;;;;;;;27.24;40.71;100907.81;5112728;28;20035;-62
2022/07/09 15:36:31;;;;;;;3.15;1.88;;;;;;;27.15;39.59;100904.78;5112528;28;20046;-62
2022/07/09 15:38:57;;;;;;;2.53;1.60;;;;;;;27.13;39.90;100904.22;5112523;28;20031;-62
2022/07/09 15:41:23;;;;;;;1.63;1.40;;;;;;;26.89;38.93;100892.88;5112365;28;20035;-62
2022/07/09 15:43:48;;;;;;;2.97;1.70;;;;;;;26.93;39.98;100890.41;5112368;28;20036;-62